Time;durP1;ratioP1;P1;durP2;ratioP2;P2;SDS_P1;SDS_P2;PMS_P1;PMS_P2;Temp;Humidity;BMP_temperature;BMP_pressure;BME280_temperature;BME280_humidity;BME280_pressure;Samples;Min_cycle;Max_cycle;Signal;HPM_P1;HPM_P2
2021/07/30 00:02:22;;;;;;;5.67;4.57;;;16.40;99.90;;;;;;5026004;28;20244;-36
2021/07/30 00:04:48;;;;;;;5.50;4.40;;;16.40;99.90;;;;;;5031359;28;20200;-37
2021/07/30 00:07:14;;;;;;;6.53;4.17;;;16.30;99.90;;;;;;5040934;28;20636;-37
2021/07/30 00:09:40;;;;;;;4.23;3.83;;;16.30;99.90;;;;;;5037644;28;20233;-36
2021/07/30 00:12:06;;;;;;;4.23;3.83;;;16.20;99.90;;;;;;5028511;28;21087;-36
2021/07/30 00:14:32;;;;;;;6.93;4.40;;;16.20;99.90;;;;;;5025792;28;20248;-37
2021/07/30 00:16:57;;;;;;;7.00;4.20;;;16.20;99.90;;;;;;5025295;28;20555;-36
2021/07/30 00:19:23;;;;;;;6.63;4.33;;;16.20;99.90;;;;;;5026665;28;20189;-36
2021/07/30 00:21:49;;;;;;;5.10;4.13;;;16.20;99.90;;;;;;5041642;28;20748;-36
2021/07/30 00:24:15;;;;;;;9.60;4.73;;;16.10;99.90;;;;;;5033702;28;20182;-36
2021/07/30 00:26:40;;;;;;;5.23;4.50;;;16.10;99.90;;;;;;5024328;28;20205;-37
2021/07/30 00:29:06;;;;;;;5.37;4.30;;;16.10;99.90;;;;;;5039629;28;20381;-37
2021/07/30 00:31:32;;;;;;;5.07;4.60;;;16.10;99.90;;;;;;5031176;28;20193;-36
2021/07/30 00:33:57;;;;;;;5.87;3.97;;;16.10;99.90;;;;;;5025418;28;20174;-37
2021/07/30 00:36:23;;;;;;;6.07;3.63;;;16.10;99.90;;;;;;5033410;28;20182;-36
2021/07/30 00:38:48;;;;;;;4.00;3.60;;;16.20;99.90;;;;;;5032971;28;20190;-37
2021/07/30 00:41:14;;;;;;;4.97;4.30;;;16.10;99.90;;;;;;5025499;28;20182;-36
2021/07/30 00:43:40;;;;;;;4.90;4.40;;;16.10;99.90;;;;;;5032886;28;20196;-36
2021/07/30 00:46:06;;;;;;;4.50;4.10;;;16.10;99.90;;;;;;5025338;28;20677;-37
2021/07/30 00:48:32;;;;;;;6.57;3.47;;;16.20;99.90;;;;;;5025151;28;20190;-36
2021/07/30 00:50:58;;;;;;;7.63;4.10;;;16.20;99.90;;;;;;5033215;28;20432;-36
2021/07/30 00:53:26;;;;;;;5.23;4.00;;;16.30;99.90;;;;;;5038665;28;20483;-36
2021/07/30 00:55:53;;;;;;;6.47;4.30;;;16.30;99.90;;;;;;5031711;28;20421;-37
2021/07/30 00:58:20;;;;;;;4.87;3.70;;;16.30;99.90;;;;;;5028504;28;20518;-36
2021/07/30 01:00:45;;;;;;;4.43;3.60;;;16.30;99.90;;;;;;5023966;28;20425;-37
2021/07/30 01:03:11;;;;;;;6.37;4.40;;;16.30;99.90;;;;;;5025441;28;20424;-36
2021/07/30 01:05:38;;;;;;;4.43;3.43;;;16.30;99.90;;;;;;5029574;28;20281;-36
2021/07/30 01:08:04;;;;;;;6.33;4.30;;;16.30;99.90;;;;;;5035014;28;20421;-36
2021/07/30 01:10:30;;;;;;;7.93;4.17;;;16.30;99.90;;;;;;5029551;28;20495;-37
2021/07/30 01:12:56;;;;;;;5.50;4.03;;;16.30;99.90;;;;;;5035691;28;20451;-37
2021/07/30 01:15:23;;;;;;;6.30;4.20;;;16.30;99.90;;;;;;5034762;28;20425;-36
2021/07/30 01:17:49;;;;;;;8.90;3.97;;;16.30;99.90;;;;;;5029216;28;20874;-37
2021/07/30 01:20:15;;;;;;;5.20;4.10;;;16.30;99.90;;;;;;5030334;28;20939;-36
2021/07/30 01:22:53;;;;;;;7.20;4.30;;;16.40;99.90;;;;;;5033578;28;20432;-36
2021/07/30 01:25:20;;;;;;;4.20;3.70;;;16.40;99.90;;;;;;5029982;28;20423;-37
2021/07/30 01:27:46;;;;;;;4.90;3.60;;;16.30;99.90;;;;;;5032602;28;20694;-36
2021/07/30 01:30:17;;;;;;;4.90;3.90;;;16.40;99.90;;;;;;5041545;28;20467;-36
2021/07/30 01:32:43;;;;;;;6.47;4.03;;;16.40;99.90;;;;;;5029155;28;20429;-37
2021/07/30 01:35:10;;;;;;;5.80;4.50;;;16.30;99.90;;;;;;5031923;28;20465;-36
2021/07/30 01:37:36;;;;;;;8.00;4.23;;;16.40;99.90;;;;;;5043184;28;20878;-36
2021/07/30 01:40:02;;;;;;;6.50;5.47;;;16.40;99.90;;;;;;5044890;28;20440;-36
2021/07/30 01:42:28;;;;;;;5.10;4.20;;;16.40;99.90;;;;;;5030227;28;20779;-36
2021/07/30 01:44:54;;;;;;;6.13;3.73;;;16.40;99.90;;;;;;5031915;28;20420;-36
2021/07/30 01:47:21;;;;;;;6.97;4.23;;;16.50;99.90;;;;;;5028785;28;20205;-37
2021/07/30 01:49:50;;;;;;;6.20;4.10;;;16.40;99.90;;;;;;5029711;28;20572;-37
2021/07/30 01:52:17;;;;;;;5.67;4.20;;;16.40;99.90;;;;;;5043139;28;20926;-36
2021/07/30 01:54:44;;;;;;;6.90;4.03;;;16.50;99.90;;;;;;5038184;28;20409;-37
2021/07/30 01:57:10;;;;;;;4.60;4.20;;;16.50;99.90;;;;;;5027051;28;20466;-37
2021/07/30 01:59:36;;;;;;;6.73;4.37;;;16.50;99.90;;;;;;5029048;28;20520;-36
2021/07/30 02:02:02;;;;;;;7.53;4.60;;;16.50;99.90;;;;;;5028234;28;20421;-36
2021/07/30 02:04:28;;;;;;;5.60;4.27;;;16.50;99.90;;;;;;5031499;28;20486;-37
2021/07/30 02:06:53;;;;;;;5.67;4.63;;;16.50;99.90;;;;;;5039184;28;20190;-36
2021/07/30 02:09:19;;;;;;;4.70;4.00;;;16.40;99.90;;;;;;5036234;28;20654;-36
2021/07/30 02:11:51;;;;;;;7.73;4.90;;;16.50;99.90;;;;;;5010547;28;20653;-37
2021/07/30 02:14:17;;;;;;;8.47;4.33;;;16.40;99.90;;;;;;5038237;28;20197;-37
2021/07/30 02:16:48;;;;;;;8.00;4.63;;;16.50;99.90;;;;;;5027957;28;20744;-37
2021/07/30 02:19:16;;;;;;;4.97;4.50;;;16.50;99.90;;;;;;5026292;28;20436;-37
2021/07/30 02:21:43;;;;;;;7.07;4.37;;;16.50;99.90;;;;;;5034157;28;20433;-36
2021/07/30 02:24:08;;;;;;;6.30;4.43;;;16.50;99.90;;;;;;5034738;28;20425;-36
2021/07/30 02:26:35;;;;;;;6.07;4.27;;;16.50;99.90;;;;;;5028063;28;20487;-37
2021/07/30 02:29:02;;;;;;;4.80;4.30;;;16.50;99.90;;;;;;5035145;28;20432;-37
2021/07/30 02:31:27;;;;;;;6.27;4.60;;;16.50;99.90;;;;;;5036028;28;20425;-37
2021/07/30 02:33:53;;;;;;;6.77;4.30;;;16.50;99.90;;;;;;5027660;28;21006;-37
2021/07/30 02:36:19;;;;;;;6.27;4.03;;;16.50;99.90;;;;;;5036461;28;20190;-38
2021/07/30 02:38:45;;;;;;;4.77;4.00;;;16.50;99.90;;;;;;5041854;28;20210;-36
2021/07/30 02:41:10;;;;;;;5.47;4.00;;;16.50;99.90;;;;;;5036089;28;20799;-37
2021/07/30 02:43:36;;;;;;;7.57;4.13;;;16.50;99.90;;;;;;5029453;28;20425;-36
2021/07/30 02:46:02;;;;;;;9.07;4.27;;;16.50;99.90;;;;;;5027441;28;20398;-36
2021/07/30 02:48:28;;;;;;;6.83;3.70;;;16.60;99.90;;;;;;5027676;28;20186;-36
2021/07/30 02:50:54;;;;;;;5.23;4.10;;;16.50;99.90;;;;;;5028069;28;20997;-37
2021/07/30 02:53:19;;;;;;;7.43;4.17;;;16.60;99.90;;;;;;5039783;28;20194;-36
2021/07/30 02:55:46;;;;;;;5.90;4.63;;;16.60;99.90;;;;;;5033140;28;20248;-36
2021/07/30 02:58:15;;;;;;;4.57;3.80;;;16.50;99.90;;;;;;5029358;28;20206;-36
2021/07/30 03:00:41;;;;;;;6.60;4.50;;;16.60;99.90;;;;;;5034789;28;20954;-37
2021/07/30 03:03:07;;;;;;;5.97;4.33;;;16.50;99.90;;;;;;5027079;28;20500;-37
2021/07/30 03:05:33;;;;;;;4.73;3.93;;;16.50;99.90;;;;;;5032026;28;20444;-36
2021/07/30 03:07:58;;;;;;;7.27;4.60;;;16.50;99.90;;;;;;5042997;28;20690;-36
2021/07/30 03:10:24;;;;;;;4.00;3.60;;;16.50;99.90;;;;;;5033063;28;20186;-37
2021/07/30 03:12:50;;;;;;;6.73;4.23;;;16.40;99.90;;;;;;5026842;28;20614;-36
2021/07/30 03:15:16;;;;;;;7.80;4.17;;;16.40;99.90;;;;;;5032689;28;20664;-36
2021/07/30 03:17:41;;;;;;;4.70;4.30;;;16.30;99.90;;;;;;5026614;28;20218;-37
2021/07/30 03:20:08;;;;;;;7.97;4.63;;;16.30;99.90;;;;;;5026596;28;20531;-36
2021/07/30 03:22:34;;;;;;;5.30;4.73;;;16.20;99.90;;;;;;5028424;28;20193;-37
2021/07/30 03:25:00;;;;;;;4.40;3.60;;;16.20;99.90;;;;;;5029219;28;20845;-36
2021/07/30 03:27:26;;;;;;;6.30;4.40;;;16.20;99.90;;;;;;5026504;28;20425;-37
2021/07/30 03:29:52;;;;;;;9.17;4.37;;;16.20;99.90;;;;;;5036055;28;20424;-36
2021/07/30 03:32:18;;;;;;;6.90;4.47;;;16.20;99.90;;;;;;5026921;28;20436;-37
2021/07/30 03:34:45;;;;;;;7.40;4.60;;;16.20;99.90;;;;;;5025901;28;20799;-36
2021/07/30 03:37:12;;;;;;;9.13;5.20;;;16.20;99.90;;;;;;5035289;28;20468;-37
2021/07/30 03:39:37;;;;;;;11.73;4.80;;;16.10;99.90;;;;;;5033769;28;20418;-37
2021/07/30 03:42:04;;;;;;;4.83;4.33;;;16.10;99.90;;;;;;5026717;28;20425;-37
2021/07/30 03:44:29;;;;;;;6.47;4.30;;;16.10;99.90;;;;;;5037026;28;20186;-37
2021/07/30 03:46:55;;;;;;;8.47;5.13;;;16.00;99.90;;;;;;5026561;28;20421;-36
2021/07/30 03:49:21;;;;;;;7.07;5.07;;;16.00;99.90;;;;;;5026622;28;20301;-37
2021/07/30 03:51:46;;;;;;;8.13;4.67;;;16.00;99.90;;;;;;5027832;28;20277;-37
2021/07/30 03:54:12;;;;;;;6.17;4.40;;;16.00;99.90;;;;;;5031364;28;20637;-36
2021/07/30 03:56:42;;;;;;;5.17;4.63;;;15.90;99.90;;;;;;5026411;28;20444;-37
2021/07/30 03:59:09;;;;;;;5.23;4.73;;;15.90;99.90;;;;;;5033343;28;20190;-36
2021/07/30 04:01:34;;;;;;;8.17;4.40;;;15.80;99.90;;;;;;5026238;28;20436;-37
2021/07/30 04:04:00;;;;;;;5.97;4.10;;;15.80;99.90;;;;;;5025918;28;20429;-36
2021/07/30 04:06:26;;;;;;;8.03;4.90;;;15.80;99.90;;;;;;5041686;28;20530;-37
2021/07/30 04:08:52;;;;;;;6.63;4.93;;;15.70;99.90;;;;;;5040801;28;20202;-36
2021/07/30 04:11:17;;;;;;;6.63;4.77;;;15.80;99.90;;;;;;5036792;28;20845;-37
2021/07/30 04:13:46;;;;;;;9.10;5.70;;;15.70;99.90;;;;;;5028494;28;20197;-36
2021/07/30 04:16:12;;;;;;;5.50;5.00;;;15.70;99.90;;;;;;5026181;28;20186;-37
2021/07/30 04:18:37;;;;;;;6.30;4.33;;;15.60;99.90;;;;;;5024335;28;20532;-38
2021/07/30 04:21:07;;;;;;;5.17;4.37;;;15.60;99.90;;;;;;5029680;28;20519;-37
2021/07/30 04:23:34;;;;;;;5.50;4.67;;;15.60;99.90;;;;;;5040675;28;20189;-37
2021/07/30 04:26:00;;;;;;;9.80;5.20;;;15.70;99.90;;;;;;5025600;28;20425;-36
2021/07/30 04:28:26;;;;;;;9.33;5.17;;;15.70;99.90;;;;;;5025637;28;20428;-38
2021/07/30 04:30:51;;;;;;;5.60;4.60;;;15.60;99.90;;;;;;5028427;28;20421;-36
2021/07/30 04:33:17;;;;;;;10.73;5.20;;;15.70;99.90;;;;;;5025444;28;20194;-36
2021/07/30 04:35:43;;;;;;;5.30;4.77;;;15.60;99.90;;;;;;5025407;28;20277;-36
2021/07/30 04:38:09;;;;;;;6.20;5.23;;;15.60;99.90;;;;;;5032885;28;20622;-37
2021/07/30 04:40:37;;;;;;;9.13;5.37;;;15.60;99.90;;;;;;5032443;28;21064;-37
2021/07/30 04:43:02;;;;;;;5.23;4.70;;;15.60;99.90;;;;;;5025030;28;20182;-36
2021/07/30 04:45:28;;;;;;;5.97;5.40;;;15.60;99.90;;;;;;5032576;28;20429;-37
2021/07/30 04:47:54;;;;;;;5.77;4.57;;;15.60;99.90;;;;;;5025157;28;20194;-37
2021/07/30 04:50:20;;;;;;;6.70;5.17;;;15.60;99.90;;;;;;5023556;28;20194;-36
2021/07/30 04:52:45;;;;;;;5.40;4.90;;;15.50;99.90;;;;;;5036326;28;20198;-36
2021/07/30 04:55:11;;;;;;;8.53;5.10;;;15.60;99.90;;;;;;5038631;28;20427;-37
2021/07/30 04:57:37;;;;;;;5.20;4.70;;;15.60;99.90;;;;;;5032224;28;20221;-37
2021/07/30 05:00:04;;;;;;;6.60;5.23;;;15.60;99.90;;;;;;5030290;28;20628;-36
2021/07/30 05:02:29;;;;;;;5.50;4.70;;;15.60;99.90;;;;;;5025494;28;20401;-36
2021/07/30 05:04:56;;;;;;;7.07;4.50;;;15.60;99.90;;;;;;5033361;28;20459;-36
2021/07/30 05:07:24;;;;;;;5.73;4.93;;;15.60;99.90;;;;;;5040096;28;20239;-37
2021/07/30 05:09:50;;;;;;;8.30;5.00;;;15.60;99.90;;;;;;5038486;28;20517;-37
2021/07/30 05:12:16;;;;;;;7.03;4.77;;;15.70;99.90;;;;;;5028900;28;20860;-37
2021/07/30 05:14:42;;;;;;;5.50;4.53;;;15.70;99.90;;;;;;5031742;28;20600;-37
2021/07/30 05:17:07;;;;;;;10.10;4.90;;;15.70;99.90;;;;;;5030004;28;20465;-37
2021/07/30 05:19:33;;;;;;;4.77;4.37;;;15.70;99.90;;;;;;5025080;28;20190;-37
2021/07/30 05:21:59;;;;;;;5.47;4.93;;;15.70;99.90;;;;;;5032035;28;20193;-37
2021/07/30 05:24:24;;;;;;;7.10;4.60;;;15.70;99.90;;;;;;5038803;28;20190;-37
2021/07/30 05:26:50;;;;;;;5.50;4.90;;;15.70;99.90;;;;;;5027050;28;20217;-37
2021/07/30 05:29:16;;;;;;;6.07;4.90;;;15.80;99.90;;;;;;5024296;28;20664;-37
2021/07/30 05:31:41;;;;;;;6.70;4.77;;;15.70;99.90;;;;;;5024878;28;20209;-36
2021/07/30 05:34:07;;;;;;;5.87;5.27;;;15.70;99.90;;;;;;5025299;28;20190;-36
2021/07/30 05:36:33;;;;;;;7.40;4.37;;;15.80;99.90;;;;;;5024529;28;20195;-36
2021/07/30 05:38:58;;;;;;;9.47;5.00;;;15.80;99.90;;;;;;5028854;28;20198;-37
2021/07/30 05:41:24;;;;;;;7.67;5.20;;;15.90;99.90;;;;;;5043029;28;20197;-37
2021/07/30 05:43:50;;;;;;;5.13;4.00;;;15.90;99.90;;;;;;5025014;28;20225;-36
2021/07/30 05:46:19;;;;;;;5.27;4.77;;;16.00;99.90;;;;;;5027700;28;20277;-37
2021/07/30 05:48:49;;;;;;;7.23;4.97;;;16.00;99.90;;;;;;5024779;28;20194;-37
2021/07/30 05:51:15;;;;;;;5.90;4.47;;;16.10;99.90;;;;;;5025130;28;20445;-36
2021/07/30 05:53:41;;;;;;;7.63;4.30;;;16.10;99.90;;;;;;5037493;28;20436;-36
2021/07/30 05:56:07;;;;;;;4.93;4.43;;;16.20;99.90;;;;;;5035851;28;20192;-36
2021/07/30 05:58:33;;;;;;;6.80;4.70;;;16.20;99.90;;;;;;5027907;28;20452;-37
2021/07/30 06:00:59;;;;;;;7.20;5.33;;;16.30;99.90;;;;;;5041675;28;20416;-37
2021/07/30 06:03:25;;;;;;;8.53;4.20;;;16.30;99.90;;;;;;5027744;28;20644;-36
2021/07/30 06:05:50;;;;;;;6.80;3.87;;;16.40;99.90;;;;;;5042719;28;20511;-37
2021/07/30 06:08:16;;;;;;;7.20;4.50;;;16.40;99.90;;;;;;5037514;28;20201;-37
2021/07/30 06:10:42;;;;;;;6.97;4.77;;;16.40;99.90;;;;;;5033354;28;20196;-36
2021/07/30 06:13:08;;;;;;;4.97;4.47;;;16.50;99.90;;;;;;5026366;28;20728;-37
2021/07/30 06:15:34;;;;;;;4.07;3.77;;;16.50;99.90;;;;;;5036985;28;20196;-37
2021/07/30 06:18:02;;;;;;;6.57;3.83;;;16.50;99.90;;;;;;5027809;28;20457;-36
2021/07/30 06:20:30;;;;;;;5.13;3.50;;;16.60;99.90;;;;;;5031356;28;20430;-36
2021/07/30 06:22:56;;;;;;;6.20;3.70;;;16.70;99.90;;;;;;5042558;28;20523;-36
2021/07/30 06:25:22;;;;;;;3.83;3.50;;;16.80;99.90;;;;;;5041905;28;20419;-37
2021/07/30 06:27:47;;;;;;;5.33;4.33;;;17.00;99.90;;;;;;5038345;28;21166;-37
2021/07/30 06:30:13;;;;;;;6.93;4.23;;;17.10;99.90;;;;;;5036396;28;20660;-36
2021/07/30 06:32:40;;;;;;;5.13;4.13;;;17.20;99.90;;;;;;5043393;28;20225;-36
2021/07/30 06:35:06;;;;;;;5.00;3.10;;;17.30;99.90;;;;;;5038381;28;20543;-37
2021/07/30 06:37:36;;;;;;;5.07;3.50;;;17.40;99.90;;;;;;5036794;28;20463;-37
2021/07/30 06:40:04;;;;;;;6.10;4.07;;;17.60;99.90;;;;;;5037975;28;20484;-37
2021/07/30 06:42:32;;;;;;;4.00;3.27;;;17.70;99.90;;;;;;5039659;28;20455;-37
2021/07/30 06:44:58;;;;;;;5.70;3.33;;;17.90;99.90;;;;;;5037885;28;20413;-37
2021/07/30 06:47:24;;;;;;;4.50;3.10;;;18.00;99.90;;;;;;5036518;28;20413;-36
2021/07/30 06:49:50;;;;;;;5.50;3.30;;;18.10;99.90;;;;;;5028313;28;20948;-37
2021/07/30 06:52:16;;;;;;;4.00;3.70;;;18.10;99.90;;;;;;5038158;28;20193;-37
2021/07/30 06:54:43;;;;;;;5.50;4.07;;;18.20;99.90;;;;;;5037184;28;20487;-37
2021/07/30 06:57:09;;;;;;;3.87;3.43;;;18.20;99.90;;;;;;5031713;28;20475;-37
2021/07/30 06:59:34;;;;;;;3.67;3.37;;;18.20;99.90;;;;;;5027492;28;20627;-37
2021/07/30 07:02:01;;;;;;;8.20;3.60;;;18.30;99.90;;;;;;5036534;28;20192;-36
2021/07/30 07:04:27;;;;;;;4.10;3.47;;;18.30;99.90;;;;;;5031440;28;20178;-37
2021/07/30 07:06:53;;;;;;;3.43;3.13;;;18.30;99.90;;;;;;5043618;28;20443;-36
2021/07/30 07:09:19;;;;;;;5.40;3.60;;;18.30;99.90;;;;;;5037385;28;20448;-37
2021/07/30 07:11:45;;;;;;;5.83;3.57;;;18.30;99.90;;;;;;5032698;28;20613;-36
2021/07/30 07:14:11;;;;;;;4.87;3.10;;;18.40;99.90;;;;;;5026887;28;20186;-38
2021/07/30 07:16:37;;;;;;;4.60;3.37;;;18.50;99.90;;;;;;5031749;28;20429;-36
2021/07/30 07:19:06;;;;;;;7.03;3.57;;;18.50;99.90;;;;;;5026826;28;20540;-37
2021/07/30 07:21:33;;;;;;;4.43;3.20;;;18.50;99.90;;;;;;5026027;28;20915;-37
2021/07/30 07:24:00;;;;;;;3.00;2.70;;;18.60;99.90;;;;;;5043180;28;20416;-37
2021/07/30 07:26:26;;;;;;;3.57;3.27;;;18.70;99.90;;;;;;5041872;28;20695;-38
2021/07/30 07:28:51;;;;;;;4.20;2.90;;;18.70;99.90;;;;;;5027990;28;20421;-37
2021/07/30 07:31:17;;;;;;;3.53;3.20;;;18.80;99.90;;;;;;5034660;28;20301;-37
2021/07/30 07:33:43;;;;;;;4.43;3.20;;;18.90;99.90;;;;;;5026490;28;20201;-37
2021/07/30 07:36:08;;;;;;;3.43;3.10;;;19.00;99.90;;;;;;5029315;28;20268;-37
2021/07/30 07:38:34;;;;;;;4.63;3.10;;;19.00;99.90;;;;;;5039086;28;20436;-37
2021/07/30 07:41:01;;;;;;;3.10;2.80;;;19.10;99.90;;;;;;5044280;28;20262;-37
2021/07/30 07:43:27;;;;;;;4.80;2.63;;;19.20;99.90;;;;;;5023983;28;20190;-37
2021/07/30 07:45:53;;;;;;;3.90;2.97;;;19.30;99.90;;;;;;5033876;28;20432;-37
2021/07/30 07:48:18;;;;;;;3.10;2.80;;;19.40;99.90;;;;;;5026919;28;20317;-37
2021/07/30 07:50:44;;;;;;;3.20;2.77;;;19.50;99.90;;;;;;5026607;28;20769;-36
2021/07/30 07:53:17;;;;;;;4.20;3.20;;;19.60;99.90;;;;;;5025601;28;20654;-37
2021/07/30 07:55:43;;;;;;;5.30;3.00;;;19.60;99.90;;;;;;5035480;28;20618;-38
2021/07/30 07:58:10;;;;;;;3.60;3.00;;;19.60;99.90;;;;;;5039216;28;20497;-37
2021/07/30 08:00:36;;;;;;;3.40;2.90;;;19.70;99.90;;;;;;5030332;28;20424;-37
2021/07/30 08:03:02;;;;;;;4.07;3.33;;;19.70;99.90;;;;;;5026493;28;20418;-37
2021/07/30 08:05:28;;;;;;;5.57;2.93;;;19.70;99.90;;;;;;5038370;28;20489;-37
2021/07/30 08:07:53;;;;;;;3.93;2.70;;;19.80;99.90;;;;;;5035828;28;20205;-37
2021/07/30 08:10:19;;;;;;;4.47;2.80;;;19.90;99.90;;;;;;5033813;28;20962;-38
2021/07/30 08:12:45;;;;;;;4.57;2.90;;;19.90;99.90;;;;;;5028353;28;20194;-37
2021/07/30 08:15:11;;;;;;;3.00;2.60;;;20.00;99.90;;;;;;5025850;28;20193;-36
2021/07/30 08:17:37;;;;;;;2.93;2.40;;;20.00;99.90;;;;;;5025381;28;20508;-38
2021/07/30 08:20:04;;;;;;;5.20;3.00;;;20.00;99.90;;;;;;5025691;28;20797;-37
2021/07/30 08:22:30;;;;;;;4.20;3.57;;;20.10;99.90;;;;;;5031009;28;20520;-37
2021/07/30 08:24:55;;;;;;;3.00;2.70;;;20.10;99.90;;;;;;5033681;28;20860;-37
2021/07/30 08:27:21;;;;;;;3.10;2.80;;;20.10;99.90;;;;;;5029350;28;20197;-37
2021/07/30 08:29:47;;;;;;;4.57;3.00;;;20.20;99.90;;;;;;5033437;28;20552;-37
2021/07/30 08:32:12;;;;;;;4.07;3.10;;;20.20;99.90;;;;;;5024798;28;20245;-37
2021/07/30 08:34:41;;;;;;;5.30;3.20;;;20.20;99.90;;;;;;5025588;28;20228;-37
2021/07/30 08:37:07;;;;;;;3.90;3.13;;;20.30;99.90;;;;;;5024794;28;20218;-37
2021/07/30 08:39:33;;;;;;;3.30;3.00;;;20.30;99.90;;;;;;5032448;28;20884;-37
2021/07/30 08:42:01;;;;;;;3.60;2.63;;;20.40;99.90;;;;;;5030471;28;20512;-37
2021/07/30 08:44:27;;;;;;;3.30;3.00;;;20.40;99.90;;;;;;5025475;28;20252;-37
2021/07/30 08:46:54;;;;;;;2.97;2.40;;;20.40;99.90;;;;;;5030600;28;20417;-37
2021/07/30 08:49:20;;;;;;;4.50;2.77;;;20.40;99.90;;;;;;5025455;28;20431;-37
2021/07/30 08:51:49;;;;;;;3.80;3.10;;;20.50;99.90;;;;;;5025759;28;20943;-37
2021/07/30 08:54:15;;;;;;;4.00;2.60;;;20.50;99.90;;;;;;5032723;28;20450;-37
2021/07/30 08:56:40;;;;;;;4.17;2.80;;;20.50;99.90;;;;;;5039190;28;20416;-37
2021/07/30 08:59:09;;;;;;;5.67;3.20;;;20.50;99.90;;;;;;5031038;28;20248;-38
2021/07/30 09:01:36;;;;;;;3.20;2.73;;;20.60;99.90;;;;;;5027075;28;20178;-38
2021/07/30 09:04:02;;;;;;;4.33;3.30;;;20.60;99.90;;;;;;5025576;28;20468;-37
2021/07/30 09:06:28;;;;;;;4.83;2.67;;;20.70;99.90;;;;;;5045738;28;20784;-38
2021/07/30 09:08:54;;;;;;;3.30;2.33;;;20.70;99.90;;;;;;5032525;28;20948;-37
2021/07/30 09:11:39;;;;;;;3.80;2.70;;;20.80;99.90;;;;;;5039998;28;20486;-38
2021/07/30 09:14:10;;;;;;;3.33;2.70;;;20.90;99.90;;;;;;5025655;28;20778;-37
2021/07/30 09:16:52;;;;;;;2.93;2.73;;;21.00;99.90;;;;;;5032843;28;20424;-37
2021/07/30 09:19:18;;;;;;;3.50;2.73;;;21.10;99.90;;;;;;5025653;28;20646;-37
2021/07/30 09:21:45;;;;;;;4.57;2.70;;;21.10;99.90;;;;;;5025360;28;20987;-38
2021/07/30 09:24:13;;;;;;;6.40;3.07;;;21.20;99.90;;;;;;5030556;28;20468;-37
2021/07/30 09:26:50;;;;;;;3.47;2.20;;;21.20;99.90;;;;;;5037239;28;20451;-37
2021/07/30 09:29:27;;;;;;;4.03;2.87;;;21.30;99.90;;;;;;5032593;28;20420;-36
2021/07/30 09:31:55;;;;;;;5.83;2.27;;;21.30;99.90;;;;;;5035236;28;20420;-37
2021/07/30 09:34:34;;;;;;;4.20;2.27;;;21.30;99.90;;;;;;5028800;28;20429;-37
2021/07/30 09:37:12;;;;;;;3.80;2.40;;;21.40;99.90;;;;;;5028322;28;20500;-37
2021/07/30 09:39:41;;;;;;;4.13;2.80;;;21.50;99.90;;;;;;5037945;28;20543;-37
2021/07/30 09:42:19;;;;;;;3.53;2.50;;;21.50;99.90;;;;;;5038413;28;20432;-37
2021/07/30 09:44:52;;;;;;;5.90;2.77;;;21.50;99.90;;;;;;5033067;28;20452;-37
2021/07/30 09:47:22;;;;;;;3.00;2.37;;;21.50;99.90;;;;;;5030510;28;20429;-37
2021/07/30 09:49:59;;;;;;;7.10;2.33;;;21.60;99.90;;;;;;5028374;28;20424;-37
2021/07/30 09:52:26;;;;;;;5.47;2.47;;;21.60;99.90;;;;;;5028794;28;20812;-37
2021/07/30 09:55:04;;;;;;;9.57;3.30;;;21.60;99.90;;;;;;5044361;28;20457;-37
2021/07/30 09:57:31;;;;;;;4.43;3.10;;;21.70;99.90;;;;;;5041047;28;20904;-37
2021/07/30 10:00:03;;;;;;;4.57;2.90;;;21.80;99.90;;;;;;5028724;28;20425;-37
2021/07/30 10:02:30;;;;;;;3.73;2.77;;;21.90;99.90;;;;;;5039434;28;20435;-37
2021/07/30 10:04:58;;;;;;;3.90;3.10;;;21.90;99.90;;;;;;5028642;28;20409;-37
2021/07/30 10:07:26;;;;;;;4.13;3.30;;;21.90;99.90;;;;;;5028051;28;20429;-37
2021/07/30 10:10:06;;;;;;;3.13;2.83;;;21.90;99.90;;;;;;5029398;28;20653;-37
2021/07/30 10:12:35;;;;;;;3.23;2.93;;;21.90;99.90;;;;;;5037448;28;20451;-37
2021/07/30 10:15:01;;;;;;;3.37;3.00;;;22.00;99.90;;;;;;5028194;28;20443;-37
2021/07/30 10:17:42;;;;;;;3.90;2.90;;;22.00;99.90;;;;;;5034611;28;20465;-37
2021/07/30 10:20:09;;;;;;;4.40;3.30;;;22.00;99.90;;;;;;5028749;28;20427;-38
2021/07/30 10:22:48;;;;;;;5.27;3.63;;;22.10;99.90;;;;;;5028130;28;20421;-37
2021/07/30 10:25:39;;;;;;;4.67;3.77;;;22.20;99.90;;;;;;5031619;28;20769;-37
2021/07/30 10:28:11;;;;;;;9.90;4.27;;;22.20;99.90;;;;;;5037118;28;20439;-37
2021/07/30 10:31:06;;;;;;;4.67;3.83;;;22.30;99.90;;;;;;5037215;28;20458;-37
2021/07/30 10:33:32;;;;;;;4.93;4.30;;;22.30;99.90;;;;;;5027508;28;20511;-37
2021/07/30 10:35:59;;;;;;;4.53;3.70;;;22.40;99.90;;;;;;5028254;28;20475;-37
2021/07/30 10:38:25;;;;;;;4.20;3.73;;;22.40;99.90;;;;;;5027801;28;20487;-36
2021/07/30 10:41:06;;;;;;;6.43;4.30;;;22.50;99.90;;;;;;5038130;28;20448;-37
2021/07/30 10:43:51;;;;;;;11.43;4.13;;;22.50;99.90;;;;;;5034559;28;20417;-37
2021/07/30 10:46:18;;;;;;;6.20;4.40;;;22.50;99.90;;;;;;5027579;28;20542;-37
2021/07/30 10:48:45;;;;;;;7.67;3.70;;;22.50;99.90;;;;;;5040361;28;20444;-37
2021/07/30 10:51:20;;;;;;;5.27;3.43;;;22.70;99.90;;;;;;5027829;28;20428;-37
2021/07/30 10:53:49;;;;;;;6.63;3.80;;;22.70;99.90;;;;;;5028446;28;20482;-36
2021/07/30 10:56:18;;;;;;;7.07;3.90;;;22.70;99.90;;;;;;5035757;28;20472;-37
2021/07/30 10:58:43;;;;;;;4.67;3.60;;;22.70;99.90;;;;;;5032213;28;20464;-37
2021/07/30 11:01:14;;;;;;;4.03;3.20;;;22.70;99.90;;;;;;5027247;28;20421;-36
2021/07/30 11:03:49;;;;;;;8.73;4.17;;;22.80;99.90;;;;;;5032829;28;20207;-38
2021/07/30 11:06:18;;;;;;;4.30;4.00;;;22.80;99.90;;;;;;5033246;28;20476;-38
2021/07/30 11:09:03;;;;;;;4.57;4.03;;;22.90;99.90;;;;;;5045578;28;20984;-37
2021/07/30 11:11:48;;;;;;;4.23;3.00;;;22.90;99.90;;;;;;5038044;28;20420;-37
2021/07/30 11:14:29;;;;;;;4.10;3.70;;;22.90;99.90;;;;;;5038722;28;20939;-37
2021/07/30 11:17:04;;;;;;;6.10;3.40;;;22.90;99.90;;;;;;5034227;28;20839;-37
2021/07/30 11:19:36;;;;;;;4.03;3.63;;;22.90;99.90;;;;;;5034158;28;20938;-37
2021/07/30 11:22:05;;;;;;;3.67;3.37;;;23.00;99.90;;;;;;5031527;28;20475;-37
2021/07/30 11:24:37;;;;;;;5.40;3.40;;;23.00;99.90;;;;;;5030845;28;20416;-37
2021/07/30 11:27:02;;;;;;;4.30;3.03;;;23.00;99.90;;;;;;5039673;28;20466;-37
2021/07/30 11:29:28;;;;;;;4.10;3.80;;;23.10;99.90;;;;;;5041627;28;20432;-37
2021/07/30 11:32:00;;;;;;;3.87;3.47;;;23.30;99.90;;;;;;5031823;28;20641;-38
2021/07/30 11:34:43;;;;;;;4.83;3.30;;;23.40;99.90;;;;;;5036086;28;20424;-37
2021/07/30 11:37:10;;;;;;;3.50;3.20;;;23.40;99.10;;;;;;5026924;28;20464;-38
2021/07/30 11:39:44;;;;;;;4.60;3.67;;;23.40;98.90;;;;;;5027884;28;20584;-37
2021/07/30 11:42:15;;;;;;;4.60;3.47;;;23.40;99.10;;;;;;5044057;28;20494;-37
2021/07/30 11:45:04;;;;;;;4.37;3.60;;;23.30;98.90;;;;;;5028051;28;20432;-37
2021/07/30 11:47:36;;;;;;;4.23;3.80;;;23.30;99.70;;;;;;5032449;28;20527;-37
2021/07/30 11:50:06;;;;;;;3.30;3.00;;;23.30;99.60;;;;;;5027443;28;20428;-38
2021/07/30 11:52:32;;;;;;;4.13;3.50;;;23.40;99.40;;;;;;5026358;28;20461;-37
2021/07/30 11:55:31;;;;;;;3.83;3.50;;;23.40;99.90;;;;;;5030547;28;20998;-38
2021/07/30 11:58:06;;;;;;;4.80;3.23;;;23.40;99.50;;;;;;5052045;28;20482;-37
2021/07/30 12:00:32;;;;;;;4.30;3.77;;;23.30;99.20;;;;;;5034174;28;20424;-37
2021/07/30 12:03:16;;;;;;;4.50;4.10;;;23.30;98.80;;;;;;5029578;28;20947;-37
2021/07/30 12:05:42;;;;;;;5.13;4.30;;;23.30;98.60;;;;;;5028896;28;20463;-38
2021/07/30 12:08:09;;;;;;;4.70;3.80;;;23.20;98.80;;;;;;5030583;28;20780;-37
2021/07/30 12:10:36;;;;;;;4.90;3.37;;;23.30;99.10;;;;;;5038963;28;20432;-37
2021/07/30 12:13:03;;;;;;;4.47;4.07;;;23.30;99.40;;;;;;5039853;28;20416;-37
2021/07/30 12:15:29;;;;;;;3.90;3.50;;;23.40;99.20;;;;;;5030728;28;20411;-37
2021/07/30 12:18:03;;;;;;;3.90;3.20;;;23.40;99.70;;;;;;5033628;28;20545;-36
2021/07/30 12:20:33;;;;;;;4.10;3.50;;;23.40;98.90;;;;;;5029785;28;20421;-37
2021/07/30 12:23:06;;;;;;;5.03;3.53;;;23.50;98.90;;;;;;5026134;28;20779;-37
2021/07/30 12:25:45;;;;;;;4.80;4.10;;;23.40;98.90;;;;;;5025844;28;20667;-37
2021/07/30 12:28:13;;;;;;;5.60;3.60;;;23.40;98.50;;;;;;5028378;28;20431;-37
2021/07/30 12:30:40;;;;;;;3.60;3.20;;;23.40;98.40;;;;;;5034271;28;20596;-37
2021/07/30 12:33:24;;;;;;;4.17;3.77;;;23.40;98.50;;;;;;5033177;28;20515;-37
2021/07/30 12:36:11;;;;;;;6.37;4.17;;;23.40;99.20;;;;;;5033483;28;20428;-37
2021/07/30 12:38:51;;;;;;;4.20;3.80;;;23.40;99.30;;;;;;5024974;28;20461;-37
2021/07/30 12:41:22;;;;;;;4.40;3.70;;;23.40;99.20;;;;;;5039145;28;20471;-37
2021/07/30 12:43:47;;;;;;;4.03;3.60;;;23.40;99.90;;;;;;5042478;28;20519;-37
2021/07/30 12:46:37;;;;;;;4.17;3.77;;;23.40;99.20;;;;;;5029730;28;20562;-37
2021/07/30 12:49:07;;;;;;;5.40;3.97;;;23.40;98.60;;;;;;5029214;28;20615;-37
2021/07/30 12:51:34;;;;;;;4.03;3.73;;;23.50;99.10;;;;;;5025679;28;20429;-37